createdAt,value
2017-04-06T00:00:46.223Z,24.62
2017-04-06T00:01:46.099Z,22.40
2017-04-06T00:02:45.248Z,21.90
2017-04-06T00:03:44.348Z,24.88
2017-04-06T00:04:43.446Z,21.35
2017-04-06T00:05:42.568Z,23.43
2017-04-06T00:06:42.415Z,22.03
2017-04-06T00:07:41.519Z,22.58
2017-04-06T00:08:40.656Z,21.93
2017-04-06T00:09:39.764Z,21.87
2017-04-06T00:10:38.863Z,23.42
2017-04-06T00:11:38.023Z,22.22
2017-04-06T00:12:37.131Z,20.55
2017-04-06T00:13:36.260Z,20.35
2017-04-06T00:14:36.156Z,19.88
2017-04-06T00:15:35.263Z,20.83
2017-04-06T00:16:35.103Z,21.57
2017-04-06T00:17:34.223Z,20.32
2017-04-06T00:18:33.359Z,21.62
2017-04-06T00:19:32.460Z,20.80
2017-04-06T00:20:31.563Z,22.27
2017-04-06T00:21:30.666Z,19.80
2017-04-06T00:22:29.764Z,19.72
2017-04-06T00:23:29.612Z,21.70
2017-04-06T00:24:28.743Z,22.68
2017-04-06T00:25:28.143Z,20.65
2017-04-06T00:26:27.263Z,22.80
2017-04-06T00:27:26.375Z,20.55
2017-04-06T00:28:25.563Z,20.90
2017-04-06T00:29:24.707Z,23.10
2017-04-06T00:30:24.551Z,19.13
2017-04-06T00:31:23.648Z,20.40
2017-04-06T00:32:22.751Z,22.25
2017-04-06T00:33:21.964Z,22.42
2017-04-06T00:34:21.828Z,20.70
2017-04-06T00:35:20.927Z,19.90
2017-04-06T00:36:20.031Z,20.45
2017-04-06T00:37:19.891Z,19.95
2017-04-06T00:38:19.123Z,19.05
2017-04-06T00:39:18.995Z,19.43
2017-04-06T00:40:18.109Z,20.05
2017-04-06T00:41:18.089Z,20.25
2017-04-06T00:42:17.223Z,18.63
2017-04-06T00:43:17.064Z,19.68
2017-04-06T00:44:16.236Z,18.85
2017-04-06T00:45:15.328Z,19.85
2017-04-06T00:46:14.423Z,19.83
2017-04-06T00:47:13.544Z,18.60
2017-04-06T00:48:12.691Z,19.42
2017-04-06T00:49:11.823Z,18.42
2017-04-06T00:50:11.686Z,17.70
2017-04-06T00:51:10.793Z,19.23
2017-04-06T00:52:14.103Z,18.97
2017-04-06T00:53:13.951Z,19.15
2017-04-06T00:54:13.083Z,18.08
2017-04-06T00:55:12.924Z,19.05
2017-04-06T00:56:12.031Z,18.40
2017-04-06T00:57:11.131Z,17.32
2017-04-06T00:58:10.244Z,18.73
2017-04-06T00:59:10.088Z,17.72
2017-04-06T01:00:09.848Z,14.83
2017-04-06T01:01:09.720Z,16.37
2017-04-06T01:02:08.959Z,16.05
2017-04-06T01:03:08.815Z,16.37
2017-04-06T01:04:07.927Z,16.43
2017-04-06T01:05:07.863Z,16.63
2017-04-06T01:06:07.068Z,16.08
2017-04-06T01:07:06.215Z,14.37
2017-04-06T01:08:06.070Z,16.43
2017-04-06T01:09:05.557Z,17.55
2017-04-06T01:10:04.680Z,15.50
2017-04-06T01:11:03.776Z,14.50
2017-04-06T01:12:03.888Z,16.15
2017-04-06T01:13:03.735Z,16.18
2017-04-06T01:14:02.843Z,16.55
2017-04-06T01:15:01.996Z,17.12
2017-04-06T01:16:01.092Z,14.33
2017-04-06T01:17:00.199Z,14.52
2017-04-06T01:17:59.295Z,15.57
2017-04-06T01:18:58.395Z,12.98
2017-04-06T01:19:58.276Z,12.90
2017-04-06T01:20:57.395Z,13.17
2017-04-06T01:21:57.265Z,13.65
2017-04-06T01:22:56.367Z,13.73
2017-04-06T01:23:55.467Z,13.15
2017-04-06T01:24:55.404Z,12.60
2017-04-06T01:25:54.503Z,13.52
2017-04-06T01:26:53.659Z,14.05
2017-04-06T01:27:53.500Z,13.45
2017-04-06T01:28:52.599Z,11.98
2017-04-06T01:29:51.727Z,12.90
2017-04-06T01:30:51.604Z,14.67
2017-04-06T01:31:50.699Z,12.12
2017-04-06T01:32:49.799Z,13.52
2017-04-06T01:33:49.643Z,11.65
2017-04-06T01:34:48.764Z,10.92
2017-04-06T01:35:47.868Z,11.90
2017-04-06T01:36:47.727Z,12.72
2017-04-06T01:37:46.835Z,11.42
2017-04-06T01:38:45.939Z,11.18
2017-04-06T01:39:45.788Z,11.52
2017-04-06T01:40:44.907Z,11.23
2017-04-06T01:41:44.085Z,10.90
2017-04-06T01:42:43.187Z,10.82
2017-04-06T01:43:42.291Z,10.75
2017-04-06T01:44:42.135Z,12.25
2017-04-06T01:45:41.284Z,9.02
2017-04-06T01:46:41.186Z,10.65
2017-04-06T01:47:41.055Z,10.65
2017-04-06T01:48:40.151Z,8.75
2017-04-06T01:49:39.563Z,9.70
2017-04-06T01:50:39.423Z,10.28
2017-04-06T01:51:38.519Z,9.37
2017-04-06T01:52:37.607Z,8.40
2017-04-06T01:53:36.699Z,10.48
2017-04-06T01:54:35.792Z,10.48
2017-04-06T01:55:34.937Z,8.65
2017-04-06T01:56:34.803Z,9.75
2017-04-06T01:57:34.655Z,8.28
2017-04-06T01:58:33.751Z,8.85
2017-04-06T01:59:32.856Z,8.43
2017-04-06T02:00:32.024Z,9.53
2017-04-06T02:01:31.127Z,8.68
2017-04-06T02:02:30.220Z,7.52
2017-04-06T02:03:29.627Z,7.70
2017-04-06T02:04:29.465Z,8.52
2017-04-06T02:05:28.551Z,7.05
2017-04-06T02:06:27.660Z,7.20
2017-04-06T02:07:26.759Z,7.02
2017-04-06T02:08:25.856Z,8.10
2017-04-06T02:09:25.704Z,7.52
2017-04-06T02:10:24.796Z,7.80
2017-04-06T02:11:23.941Z,8.58
2017-04-06T02:12:23.787Z,8.12
2017-04-06T02:13:23.231Z,6.70
2017-04-06T02:14:23.072Z,7.07
2017-04-06T02:15:22.189Z,7.13
2017-04-06T02:16:21.303Z,7.37
2017-04-06T02:17:21.563Z,7.52
2017-04-06T02:18:20.656Z,6.88
2017-04-06T02:19:19.759Z,6.77
2017-04-06T02:20:18.884Z,6.78
2017-04-06T02:21:18.787Z,7.53
2017-04-06T02:22:18.728Z,7.58
2017-04-06T02:23:17.871Z,6.30
2017-04-06T02:24:17.711Z,6.05
2017-04-06T02:25:16.800Z,6.00
2017-04-06T02:26:15.895Z,6.05
2017-04-06T02:27:15.023Z,6.85
2017-04-06T02:28:14.440Z,6.23
2017-04-06T02:29:14.276Z,6.43
2017-04-06T02:30:13.451Z,5.55
2017-04-06T02:31:12.548Z,6.07
2017-04-06T02:32:11.637Z,5.65
2017-04-06T02:33:10.752Z,5.28
2017-04-06T02:34:09.844Z,6.22
2017-04-06T02:35:09.268Z,4.58
2017-04-06T02:36:08.361Z,3.83
2017-04-06T02:37:07.463Z,5.48
2017-04-06T02:38:06.581Z,4.53
2017-04-06T02:39:05.692Z,4.27
2017-04-06T02:40:05.532Z,5.10
2017-04-06T02:41:04.620Z,3.80
2017-04-06T02:42:03.727Z,5.18
2017-04-06T02:43:02.848Z,4.22
2017-04-06T02:44:02.721Z,3.98
2017-04-06T02:45:01.816Z,3.78
2017-04-06T02:46:00.923Z,3.67
2017-04-06T02:47:00.760Z,3.90
2017-04-06T02:47:59.912Z,3.22
2017-04-06T02:48:59.748Z,3.75
2017-04-06T02:49:58.843Z,3.92
2017-04-06T02:50:57.935Z,3.87
2017-04-06T02:51:57.024Z,3.35
2017-04-06T02:52:56.136Z,3.25
2017-04-06T02:53:55.231Z,4.37
2017-04-06T02:54:54.639Z,3.08
2017-04-06T02:55:54.491Z,3.80
2017-04-06T02:56:53.579Z,3.02
2017-04-06T02:57:52.694Z,3.23
2017-04-06T02:58:51.895Z,3.67
2017-04-06T02:59:51.740Z,2.87
2017-04-06T03:00:50.883Z,2.62
2017-04-06T03:01:50.720Z,3.00
2017-04-06T03:02:49.831Z,3.10
2017-04-06T03:03:48.921Z,2.73
2017-04-06T03:04:48.091Z,2.42
2017-04-06T03:05:47.187Z,2.00
2017-04-06T03:06:46.284Z,1.92
2017-04-06T03:07:45.459Z,3.37
2017-04-06T03:08:44.554Z,2.55
2017-04-06T03:09:43.652Z,2.97
2017-04-06T03:10:42.751Z,2.57
2017-04-06T03:11:42.163Z,2.58
2017-04-06T03:12:42.027Z,2.85
2017-04-06T03:13:41.119Z,1.75
2017-04-06T03:14:40.223Z,2.73
2017-04-06T03:15:40.051Z,2.30
2017-04-06T03:16:39.152Z,2.07
2017-04-06T03:17:38.283Z,2.97
2017-04-06T03:18:37.403Z,2.53
2017-04-06T03:19:36.642Z,1.93
2017-04-06T03:20:35.763Z,2.02
2017-04-06T03:21:35.595Z,2.83
2017-04-06T03:22:34.731Z,2.50
2017-04-06T03:23:33.839Z,2.70
2017-04-06T03:24:33.681Z,2.72
2017-04-06T03:25:32.775Z,2.15
2017-04-06T03:26:31.874Z,2.12
2017-04-06T03:27:30.967Z,2.30
2017-04-06T03:28:30.118Z,2.22
2017-04-06T03:29:29.217Z,2.78
2017-04-06T03:30:28.308Z,2.17
2017-04-06T03:31:27.412Z,3.10
2017-04-06T03:32:26.595Z,2.55
2017-04-06T03:33:25.700Z,2.58
2017-04-06T03:34:25.130Z,2.72
2017-04-06T03:35:24.227Z,2.40
2017-04-06T03:36:23.316Z,2.40
2017-04-06T03:37:22.403Z,2.40
2017-04-06T03:38:21.512Z,2.95
2017-04-06T03:39:20.639Z,1.87
2017-04-06T03:40:20.471Z,2.00
2017-04-06T03:41:19.567Z,2.00
2017-04-06T03:42:18.703Z,2.72
2017-04-06T03:43:18.547Z,2.40
2017-04-06T03:44:17.760Z,2.77
2017-04-06T03:45:16.948Z,3.22
2017-04-06T03:46:16.044Z,2.30
2017-04-06T03:47:15.168Z,2.05
2017-04-06T03:48:14.348Z,1.85
2017-04-06T03:49:14.183Z,2.17
2017-04-06T03:50:13.296Z,2.30
2017-04-06T03:51:12.387Z,1.85
2017-04-06T03:52:11.479Z,2.27
2017-04-06T03:53:10.651Z,1.90
2017-04-06T03:54:09.739Z,2.38
2017-04-06T03:55:08.857Z,1.98
2017-04-06T03:56:08.699Z,2.18
2017-04-06T03:57:07.792Z,2.27
2017-04-06T03:58:06.879Z,2.68
2017-04-06T03:59:05.979Z,1.50
2017-04-06T04:00:05.135Z,2.20
2017-04-06T04:01:04.236Z,1.92
2017-04-06T04:02:03.336Z,2.43
2017-04-06T04:03:02.436Z,1.80
2017-04-06T04:04:01.540Z,2.37
2017-04-06T04:05:01.379Z,2.15
2017-04-06T04:06:00.516Z,2.45
2017-04-06T04:06:59.743Z,2.23
2017-04-06T04:07:58.856Z,2.32
2017-04-06T04:08:57.951Z,1.72
2017-04-06T04:09:57.043Z,2.32
2017-04-06T04:10:56.168Z,2.02
2017-04-06T04:11:56.063Z,2.68
2017-04-06T04:12:55.895Z,1.87
2017-04-06T04:13:55.000Z,2.23
2017-04-06T04:14:54.104Z,2.73
2017-04-06T04:15:53.311Z,2.28
2017-04-06T04:16:52.412Z,2.03
2017-04-06T04:17:52.255Z,2.12
2017-04-06T04:18:51.351Z,3.00
2017-04-06T04:19:50.486Z,2.88
2017-04-06T04:20:50.340Z,2.23
2017-04-06T04:21:49.460Z,2.88
2017-04-06T04:22:48.551Z,2.32
2017-04-06T04:23:47.981Z,2.30
2017-04-06T04:24:47.067Z,2.32
2017-04-06T04:25:46.167Z,2.63
2017-04-06T04:26:45.299Z,2.70
2017-04-06T04:27:44.403Z,2.13
2017-04-06T04:28:44.248Z,2.55
2017-04-06T04:29:43.344Z,2.28
2017-04-06T04:30:42.451Z,2.38
2017-04-06T04:31:41.583Z,2.60
2017-04-06T04:32:40.740Z,2.35
2017-04-06T04:33:40.659Z,2.18
2017-04-06T04:34:40.514Z,2.50
2017-04-06T04:35:39.635Z,2.00
2017-04-06T04:36:39.568Z,2.87
2017-04-06T04:37:38.671Z,2.20
2017-04-06T04:38:37.759Z,2.32
2017-04-06T04:39:36.848Z,3.28
2017-04-06T04:40:35.942Z,3.28
2017-04-06T04:41:35.063Z,3.73
2017-04-06T04:42:34.895Z,3.23
2017-04-06T04:43:33.992Z,3.37
2017-04-06T04:44:33.087Z,3.57
2017-04-06T04:45:32.180Z,3.05
2017-04-06T04:46:31.275Z,2.85
2017-04-06T04:47:30.424Z,4.05
2017-04-06T04:48:29.523Z,3.73
2017-04-06T04:49:28.615Z,4.30
2017-04-06T04:50:27.708Z,4.55
2017-04-06T04:51:26.812Z,4.20
2017-04-06T04:52:25.927Z,4.00
2017-04-06T04:53:25.823Z,3.43
2017-04-06T04:54:24.911Z,4.42
2017-04-06T04:55:24.761Z,5.32
2017-04-06T04:56:23.861Z,3.90
2017-04-06T04:57:22.952Z,4.82
2017-04-06T04:58:22.044Z,4.95
2017-04-06T04:59:21.164Z,4.42
2017-04-06T05:00:21.069Z,5.45
2017-04-06T05:01:20.907Z,5.90
2017-04-06T05:02:20.015Z,4.65
2017-04-06T05:03:19.131Z,4.48
2017-04-06T05:04:19.016Z,5.80
2017-04-06T05:05:18.115Z,4.97
2017-04-06T05:06:17.516Z,5.50
2017-04-06T05:07:17.359Z,4.57
2017-04-06T05:08:16.455Z,5.52
2017-04-06T05:09:15.580Z,5.18
2017-04-06T05:10:14.679Z,5.55
2017-04-06T05:11:14.551Z,4.75
2017-04-06T05:12:13.644Z,4.80
2017-04-06T05:13:13.042Z,5.22
2017-04-06T05:14:12.181Z,5.33
2017-04-06T05:15:11.398Z,5.00
2017-04-06T05:16:10.513Z,5.87
2017-04-06T05:17:10.362Z,4.78
2017-04-06T05:18:09.481Z,5.13
2017-04-06T05:19:08.612Z,5.08
2017-04-06T05:20:07.912Z,5.78
2017-04-06T05:21:07.010Z,5.32
2017-04-06T05:22:06.115Z,5.92
2017-04-06T05:23:05.211Z,5.17
2017-04-06T05:24:04.352Z,5.58
2017-04-06T05:25:03.457Z,5.48
2017-04-06T05:26:02.588Z,5.77
2017-04-06T05:27:02.464Z,6.07
2017-04-06T05:28:01.557Z,5.92
2017-04-06T05:29:00.684Z,5.67
2017-04-06T05:29:59.783Z,5.82
2017-04-06T05:30:58.884Z,5.85
2017-04-06T05:31:57.996Z,6.47
2017-04-06T05:32:57.111Z,5.18
2017-04-06T05:33:56.968Z,4.12
2017-04-06T05:34:56.066Z,5.35
2017-04-06T05:35:55.171Z,6.07
2017-04-06T05:36:54.280Z,5.28
2017-04-06T05:37:54.115Z,4.40
2017-04-06T05:38:53.228Z,4.90
2017-04-06T05:39:52.467Z,5.93
2017-04-06T05:40:51.580Z,5.07
2017-04-06T05:41:50.688Z,5.20
2017-04-06T05:42:49.874Z,4.77
2017-04-06T05:43:49.036Z,5.52
2017-04-06T05:44:48.127Z,5.32
2017-04-06T05:45:47.303Z,5.37
2017-04-06T05:46:46.418Z,6.15
2017-04-06T05:47:45.539Z,5.43
2017-04-06T05:48:45.379Z,7.98
2017-04-06T05:49:44.508Z,5.35
2017-04-06T05:50:43.611Z,4.60
2017-04-06T05:51:43.455Z,6.12
2017-04-06T05:52:42.551Z,4.73
2017-04-06T05:53:41.648Z,5.07
2017-04-06T05:54:40.887Z,4.35
2017-04-06T05:55:40.723Z,4.37
2017-04-06T05:56:39.843Z,5.73
2017-04-06T05:57:38.947Z,4.78
2017-04-06T05:58:38.856Z,4.52
2017-04-06T05:59:38.699Z,4.15
2017-04-06T06:00:37.964Z,5.05
2017-04-06T06:01:37.068Z,4.88
2017-04-06T06:02:36.163Z,4.70
2017-04-06T06:03:35.283Z,3.70
2017-04-06T06:04:34.407Z,3.70
2017-04-06T06:05:33.544Z,4.00
2017-04-06T06:06:32.644Z,5.07
2017-04-06T06:07:32.471Z,4.85
2017-04-06T06:08:32.372Z,3.75
2017-04-06T06:09:32.213Z,3.83
2017-04-06T06:10:31.320Z,4.62
2017-04-06T06:11:30.479Z,4.20
2017-04-06T06:12:29.579Z,3.75
2017-04-06T06:13:28.720Z,3.50
2017-04-06T06:14:28.575Z,4.68
2017-04-06T06:15:28.416Z,3.68
2017-04-06T06:16:28.275Z,4.23
2017-04-06T06:17:27.366Z,4.55
2017-04-06T06:18:26.489Z,4.20
2017-04-06T06:19:26.361Z,4.78
2017-04-06T06:20:25.485Z,4.82
2017-04-06T06:21:25.357Z,4.80
2017-04-06T06:22:24.448Z,5.12
2017-04-06T06:23:23.564Z,4.45
2017-04-06T06:24:23.407Z,4.13
2017-04-06T06:25:22.511Z,4.93
2017-04-06T06:26:21.636Z,3.92
2017-04-06T06:27:21.476Z,4.20
2017-04-06T06:28:20.567Z,5.30
2017-04-06T06:29:19.660Z,3.95
2017-04-06T06:30:18.753Z,4.87
2017-04-06T06:31:17.876Z,5.45
2017-04-06T06:32:17.720Z,4.23
2017-04-06T06:33:16.851Z,4.83
2017-04-06T06:34:15.955Z,4.43
2017-04-06T06:35:15.796Z,5.23
2017-04-06T06:36:14.911Z,4.50
2017-04-06T06:37:14.000Z,4.32
2017-04-06T06:38:13.103Z,4.18
2017-04-06T06:39:12.947Z,3.85
2017-04-06T06:40:12.043Z,4.12
2017-04-06T06:41:11.159Z,4.43
2017-04-06T06:42:10.263Z,4.42
2017-04-06T06:43:10.175Z,5.20
2017-04-06T06:44:10.019Z,4.33
2017-04-06T06:45:09.708Z,4.08
2017-04-06T06:46:08.843Z,4.87
2017-04-06T06:47:07.935Z,4.13
2017-04-06T06:48:07.379Z,4.13
2017-04-06T06:49:06.476Z,4.15
2017-04-06T06:50:07.241Z,4.13
2017-04-06T06:51:07.093Z,5.52
2017-04-06T06:52:06.207Z,8.17
2017-04-06T06:53:05.300Z,6.37
2017-04-06T06:54:04.752Z,5.98
2017-04-06T06:55:03.856Z,10.25
2017-04-06T06:56:03.055Z,5.15
2017-04-06T06:57:02.204Z,5.42
2017-04-06T06:58:01.326Z,5.12
2017-04-06T06:59:00.427Z,4.87
2017-04-06T06:59:59.551Z,4.38
2017-04-06T07:00:58.649Z,4.17
2017-04-06T07:01:57.777Z,15.22
2017-04-06T07:02:56.876Z,6.07
2017-04-06T07:03:55.967Z,5.18
2017-04-06T07:04:55.803Z,3.67
2017-04-06T07:05:54.911Z,3.27
2017-04-06T07:06:54.044Z,3.40
2017-04-06T07:07:53.895Z,4.60
2017-04-06T07:08:53.022Z,4.82
2017-04-06T07:09:52.112Z,4.52
2017-04-06T07:10:51.959Z,4.48
2017-04-06T07:11:51.067Z,6.70
2017-04-06T07:12:50.204Z,5.65
2017-04-06T07:13:50.044Z,4.40
2017-04-06T07:14:49.153Z,5.37
2017-04-06T07:15:48.248Z,5.12
2017-04-06T07:16:47.383Z,4.95
2017-04-06T07:17:46.611Z,4.58
2017-04-06T07:18:46.043Z,5.48
2017-04-06T07:19:45.963Z,4.93
2017-04-06T07:20:45.100Z,4.80
2017-04-06T07:21:44.590Z,4.88
2017-04-06T07:22:43.690Z,6.02
2017-04-06T07:23:42.820Z,6.65
2017-04-06T07:24:41.916Z,5.03
2017-04-06T07:25:41.071Z,4.85
2017-04-06T07:26:40.907Z,5.65
2017-04-06T07:27:40.032Z,5.10
2017-04-06T07:28:39.170Z,6.03
2017-04-06T07:29:38.276Z,4.80
2017-04-06T07:30:37.412Z,5.13
2017-04-06T07:31:37.273Z,6.52
2017-04-06T07:32:36.375Z,5.95
2017-04-06T07:33:35.483Z,4.77
2017-04-06T07:34:35.349Z,4.13
2017-04-06T07:35:34.491Z,5.27
2017-04-06T07:36:34.447Z,4.08
2017-04-06T07:37:33.578Z,5.18
2017-04-06T07:38:33.450Z,4.52
2017-04-06T07:39:32.572Z,4.63
2017-04-06T07:40:32.415Z,3.20
2017-04-06T07:41:31.523Z,5.10
2017-04-06T07:42:30.623Z,4.63
2017-04-06T07:43:30.468Z,3.80
2017-04-06T07:44:29.624Z,4.98
2017-04-06T07:45:29.494Z,4.93
2017-04-06T07:46:28.589Z,4.73
2017-04-06T07:47:27.687Z,4.47
2017-04-06T07:48:27.207Z,4.80
2017-04-06T07:49:26.319Z,3.57
2017-04-06T07:50:25.464Z,5.02
2017-04-06T07:51:25.315Z,3.38
2017-04-06T07:52:24.440Z,4.70
2017-04-06T07:53:23.959Z,4.67
2017-04-06T07:54:23.804Z,4.00
2017-04-06T07:55:23.311Z,4.80
2017-04-06T07:56:22.428Z,5.95
2017-04-06T07:57:22.297Z,5.00
2017-04-06T07:58:21.399Z,4.62
2017-04-06T07:59:20.519Z,4.17
2017-04-06T08:00:19.691Z,5.05
2017-04-06T08:01:19.727Z,4.75
2017-04-06T08:02:18.844Z,4.63
2017-04-06T08:03:17.948Z,5.65
2017-04-06T08:04:17.081Z,5.08
2017-04-06T08:05:16.192Z,4.53
2017-04-06T08:06:15.323Z,5.73
2017-04-06T08:07:15.183Z,3.25
2017-04-06T08:08:14.395Z,6.70
2017-04-06T08:09:13.503Z,6.30
2017-04-06T08:10:13.353Z,4.37
2017-04-06T08:11:12.485Z,6.00
2017-04-06T08:12:12.348Z,4.42
2017-04-06T08:13:11.553Z,4.42
2017-04-06T08:14:10.679Z,4.48
2017-04-06T08:15:10.591Z,3.82
2017-04-06T08:16:09.696Z,2.75
2017-04-06T08:17:08.868Z,3.48
2017-04-06T08:18:07.971Z,2.90
2017-04-06T08:19:07.075Z,5.02
2017-04-06T08:20:06.173Z,3.75
2017-04-06T08:21:05.280Z,4.18
2017-04-06T08:22:04.899Z,4.05
2017-04-06T08:23:04.761Z,3.98
2017-04-06T08:24:03.868Z,3.92
2017-04-06T08:25:03.716Z,3.85
2017-04-06T08:26:02.824Z,3.50
2017-04-06T08:27:01.928Z,3.23
2017-04-06T08:28:01.068Z,4.50
2017-04-06T08:29:00.293Z,2.98
2017-04-06T08:29:59.399Z,4.73
2017-04-06T08:30:58.827Z,2.32
2017-04-06T08:31:57.996Z,4.32
2017-04-06T08:32:57.896Z,3.35
2017-04-06T08:33:57.792Z,3.45
2017-04-06T08:34:57.647Z,3.02
2017-04-06T08:35:56.754Z,4.73
2017-04-06T08:36:55.875Z,3.62
2017-04-06T08:37:55.739Z,3.38
2017-04-06T08:38:54.855Z,3.93
2017-04-06T08:39:54.691Z,4.57
2017-04-06T08:40:53.804Z,5.02
2017-04-06T08:41:52.928Z,5.65
2017-04-06T08:42:52.909Z,4.75
2017-04-06T08:43:52.068Z,4.60
2017-04-06T08:44:51.151Z,5.27
2017-04-06T08:45:50.264Z,4.38
2017-04-06T08:46:49.400Z,3.78
2017-04-06T08:47:49.356Z,4.05
2017-04-06T08:48:48.543Z,3.93
2017-04-06T08:49:47.660Z,5.83
2017-04-06T08:50:47.531Z,4.25
2017-04-06T08:51:46.659Z,5.15
2017-04-06T08:52:46.503Z,4.12
2017-04-06T08:53:45.597Z,5.25
2017-04-06T08:54:44.724Z,4.33
2017-04-06T08:55:44.557Z,5.57
2017-04-06T08:56:44.028Z,5.15
2017-04-06T08:57:43.891Z,4.43
2017-04-06T08:58:43.316Z,5.70
2017-04-06T08:59:43.140Z,4.43
2017-04-06T09:00:42.273Z,4.25
2017-04-06T09:01:41.387Z,4.97
2017-04-06T09:02:41.228Z,4.92
2017-04-06T09:03:40.328Z,4.63
2017-04-06T09:04:39.419Z,4.37
2017-04-06T09:05:38.538Z,3.38
2017-04-06T09:06:37.628Z,4.40
2017-04-06T09:07:37.459Z,4.28
2017-04-06T09:08:36.585Z,4.95
2017-04-06T09:09:35.707Z,4.37
2017-04-06T09:10:35.572Z,3.87
2017-04-06T09:11:34.660Z,6.08
2017-04-06T09:12:33.759Z,4.90
2017-04-06T09:13:32.855Z,5.02
2017-04-06T09:14:31.995Z,4.55
2017-04-06T09:15:31.091Z,5.22
2017-04-06T09:16:30.295Z,4.72
2017-04-06T09:17:29.380Z,5.08
2017-04-06T09:18:28.543Z,5.30
2017-04-06T09:19:27.631Z,5.73
2017-04-06T09:20:26.715Z,4.75
2017-04-06T09:21:25.832Z,5.20
2017-04-06T09:22:24.933Z,5.03
2017-04-06T09:23:24.402Z,4.67
2017-04-06T09:24:23.496Z,4.22
2017-04-06T09:25:22.596Z,4.37
2017-04-06T09:26:21.720Z,4.23
2017-04-06T09:27:20.844Z,4.30
2017-04-06T09:28:20.033Z,4.93
2017-04-06T09:29:19.124Z,4.13
2017-04-06T09:30:18.215Z,4.50
2017-04-06T09:31:17.327Z,5.02
2017-04-06T09:32:17.175Z,4.72
2017-04-06T09:33:16.264Z,4.00
2017-04-06T09:34:15.465Z,5.20
2017-04-06T09:35:14.560Z,4.97
2017-04-06T09:36:13.679Z,5.68
2017-04-06T09:37:13.540Z,4.33
2017-04-06T09:38:12.627Z,3.87
2017-04-06T09:39:11.810Z,4.08
2017-04-06T09:40:10.941Z,49.97
2017-04-06T09:41:10.789Z,10.60
2017-04-06T09:42:09.947Z,4.83
2017-04-06T09:43:09.048Z,4.97
2017-04-06T09:44:08.152Z,3.80
2017-04-06T09:45:07.249Z,3.02
2017-04-06T09:46:06.343Z,3.37
2017-04-06T09:47:05.440Z,3.20
2017-04-06T09:48:05.328Z,4.05
2017-04-06T09:49:04.428Z,5.25
2017-04-06T09:50:03.844Z,4.03
2017-04-06T09:51:03.682Z,3.45
2017-04-06T09:52:02.793Z,3.30
2017-04-06T09:53:01.932Z,3.32
2017-04-06T09:54:01.044Z,3.32
2017-04-06T09:55:00.197Z,4.30
2017-04-06T09:55:59.376Z,3.17
2017-04-06T09:56:59.231Z,3.25
2017-04-06T09:57:58.359Z,3.80
2017-04-06T09:58:58.282Z,2.45
2017-04-06T09:59:57.467Z,2.50
2017-04-06T10:00:56.699Z,3.77
2017-04-06T10:01:55.802Z,3.40
2017-04-06T10:02:54.907Z,3.32
2017-04-06T10:03:54.788Z,2.52
2017-04-06T10:04:53.960Z,3.72
2017-04-06T10:05:53.075Z,3.78
2017-04-06T10:06:52.927Z,2.35
2017-04-06T10:07:52.780Z,3.35
2017-04-06T10:08:52.624Z,3.30
2017-04-06T10:09:51.752Z,3.63
2017-04-06T10:10:51.188Z,3.33
2017-04-06T10:11:50.423Z,2.72
2017-04-06T10:12:49.540Z,3.37
2017-04-06T10:13:49.392Z,2.80
2017-04-06T10:14:48.527Z,3.30
2017-04-06T10:15:48.432Z,2.88
2017-04-06T10:16:48.280Z,2.60
2017-04-06T10:17:47.492Z,4.32
2017-04-06T10:18:46.596Z,3.03
2017-04-06T10:19:45.704Z,3.00
2017-04-06T10:20:45.594Z,2.82
2017-04-06T10:21:45.443Z,2.95
2017-04-06T10:22:44.543Z,3.55
2017-04-06T10:23:43.652Z,2.93
2017-04-06T10:24:42.829Z,1.90
2017-04-06T10:25:42.016Z,2.63
2017-04-06T10:26:41.142Z,1.85
2017-04-06T10:27:40.992Z,2.97
2017-04-06T10:28:40.193Z,3.10
2017-04-06T10:29:39.308Z,2.73
2017-04-06T10:30:39.155Z,2.93
2017-04-06T10:31:38.338Z,3.08
2017-04-06T10:32:37.492Z,3.17
2017-04-06T10:33:37.336Z,2.88
2017-04-06T10:34:36.444Z,2.80
2017-04-06T10:35:35.540Z,2.00
2017-04-06T10:36:34.667Z,2.02
2017-04-06T10:37:33.772Z,3.57
2017-04-06T10:38:32.871Z,2.85
2017-04-06T10:39:31.980Z,2.42
2017-04-06T10:40:31.099Z,2.88
2017-04-06T10:41:30.946Z,2.95
2017-04-06T10:42:30.092Z,1.92
2017-04-06T10:43:29.207Z,2.70
2017-04-06T10:44:28.348Z,2.50
2017-04-06T10:45:27.759Z,3.00
2017-04-06T10:46:27.647Z,2.28
2017-04-06T10:47:27.528Z,2.88
2017-04-06T10:48:26.655Z,2.38
2017-04-06T10:49:25.755Z,2.15
2017-04-06T10:50:24.877Z,3.15
2017-04-06T10:51:23.987Z,2.32
2017-04-06T10:52:23.863Z,2.00
2017-04-06T10:53:22.988Z,2.30
2017-04-06T10:54:23.298Z,2.62
2017-04-06T10:55:23.148Z,2.22
2017-04-06T10:56:22.357Z,4.73
2017-04-06T10:57:21.542Z,2.87
2017-04-06T10:58:20.677Z,2.78
2017-04-06T10:59:21.079Z,2.70
2017-04-06T11:00:21.571Z,2.63
2017-04-06T11:01:20.785Z,2.45
2017-04-06T11:02:20.640Z,3.75
2017-04-06T11:03:19.783Z,3.98
2017-04-06T11:04:19.704Z,2.82
2017-04-06T11:05:18.808Z,2.20
2017-04-06T11:06:18.460Z,2.28
2017-04-06T11:07:18.308Z,2.95
2017-04-06T11:08:17.415Z,2.50
2017-04-06T11:09:16.636Z,2.98
2017-04-06T11:10:16.539Z,2.60
2017-04-06T11:11:16.388Z,2.18
2017-04-06T11:12:15.536Z,1.97
2017-04-06T11:13:15.396Z,2.23
2017-04-06T11:14:14.620Z,2.57
2017-04-06T11:15:13.791Z,3.05
2017-04-06T11:16:12.904Z,1.93
2017-04-06T11:17:12.907Z,2.63
2017-04-06T11:18:12.771Z,2.77
2017-04-06T11:19:11.888Z,2.18
2017-04-06T11:20:11.772Z,2.53
2017-04-06T11:21:10.888Z,2.80
2017-04-06T11:22:10.746Z,3.10
2017-04-06T11:23:09.863Z,2.75
2017-04-06T11:24:09.719Z,2.07
2017-04-06T11:25:08.896Z,2.33
2017-04-06T11:26:08.071Z,2.33
2017-04-06T11:27:07.179Z,3.23
2017-04-06T11:28:06.388Z,3.47
2017-04-06T11:29:05.574Z,2.70
2017-04-06T11:30:04.690Z,3.13
2017-04-06T11:31:04.575Z,3.50
2017-04-06T11:32:03.752Z,3.65
2017-04-06T11:33:02.851Z,3.28
2017-04-06T11:34:01.956Z,3.68
2017-04-06T11:35:01.804Z,3.92
2017-04-06T11:36:00.912Z,3.80
2017-04-06T11:37:00.044Z,3.78
2017-04-06T11:37:59.155Z,3.63
2017-04-06T11:38:58.262Z,4.45
2017-04-06T11:39:57.365Z,3.20
2017-04-06T11:40:56.472Z,3.67
2017-04-06T11:41:56.352Z,3.58
2017-04-06T11:42:55.459Z,2.40
2017-04-06T11:43:55.307Z,3.60
2017-04-06T11:44:54.403Z,2.33
2017-04-06T11:45:53.500Z,3.67
2017-04-06T11:46:52.611Z,2.62
2017-04-06T11:47:51.783Z,3.00
2017-04-06T11:48:50.872Z,3.40
2017-04-06T11:49:49.955Z,3.18
2017-04-06T11:50:49.055Z,2.85
2017-04-06T11:51:48.919Z,2.53
2017-04-06T11:52:48.069Z,3.25
2017-04-06T11:53:47.171Z,2.33
2017-04-06T11:54:46.329Z,3.85
2017-04-06T11:55:46.164Z,2.78
2017-04-06T11:56:45.319Z,3.32
2017-04-06T11:57:45.168Z,3.10
2017-04-06T11:58:44.332Z,2.55
2017-04-06T11:59:43.502Z,3.22
2017-04-06T12:00:43.344Z,2.62
2017-04-06T12:01:42.476Z,2.75
2017-04-06T12:02:42.323Z,3.42
2017-04-06T12:03:41.459Z,2.68
2017-04-06T12:04:41.807Z,2.93
2017-04-06T12:05:40.903Z,2.52
2017-04-06T12:06:40.069Z,2.77
2017-04-06T12:07:39.908Z,3.37
2017-04-06T12:08:39.004Z,4.20
2017-04-06T12:09:38.119Z,2.75
2017-04-06T12:10:37.207Z,3.03
2017-04-06T12:11:37.047Z,3.28
2017-04-06T12:12:36.155Z,3.30
2017-04-06T12:13:35.243Z,3.53
2017-04-06T12:14:34.392Z,2.63
2017-04-06T12:15:33.490Z,2.70
2017-04-06T12:16:32.596Z,3.42
2017-04-06T12:17:31.696Z,3.38
2017-04-06T12:18:30.796Z,3.05
2017-04-06T12:19:29.903Z,2.55
2017-04-06T12:20:29.765Z,4.08
2017-04-06T12:21:28.957Z,2.90
2017-04-06T12:22:28.051Z,2.27
2017-04-06T12:23:27.159Z,2.87
2017-04-06T12:24:26.995Z,2.13
2017-04-06T12:25:26.388Z,2.83
2017-04-06T12:26:25.524Z,2.57
2017-04-06T12:27:24.629Z,2.63
2017-04-06T12:28:24.467Z,1.65
2017-04-06T12:29:23.572Z,3.83
2017-04-06T12:30:23.111Z,3.17
2017-04-06T12:31:22.982Z,3.60
2017-04-06T12:32:22.080Z,4.18
2017-04-06T12:33:21.292Z,3.40
2017-04-06T12:34:21.136Z,3.73
2017-04-06T12:35:20.228Z,3.33
2017-04-06T12:36:19.679Z,2.75
2017-04-06T12:37:19.516Z,3.73
2017-04-06T12:38:18.619Z,3.03
2017-04-06T12:39:17.715Z,3.50
2017-04-06T12:40:16.808Z,3.08
2017-04-06T12:41:15.911Z,3.13
2017-04-06T12:42:15.783Z,2.93
2017-04-06T12:43:14.901Z,3.25
2017-04-06T12:44:14.756Z,3.43
2017-04-06T12:45:13.869Z,3.75
2017-04-06T12:46:12.963Z,3.05
2017-04-06T12:47:12.096Z,3.40
2017-04-06T12:48:11.227Z,2.90
2017-04-06T12:49:10.659Z,2.92
2017-04-06T12:50:09.767Z,3.83
2017-04-06T12:51:08.884Z,2.87
2017-04-06T12:52:08.028Z,2.85
2017-04-06T12:53:07.152Z,3.25
2017-04-06T12:54:06.264Z,3.17
2017-04-06T12:55:06.124Z,3.73
2017-04-06T12:56:05.241Z,3.02
2017-04-06T12:57:04.357Z,3.00
2017-04-06T12:58:04.249Z,3.00
2017-04-06T12:59:04.104Z,3.05
2017-04-06T13:00:04.059Z,2.58
2017-04-06T13:01:03.965Z,2.58
2017-04-06T13:02:03.816Z,3.20
2017-04-06T13:03:02.987Z,1.93
2017-04-06T13:04:02.120Z,3.68
2017-04-06T13:05:01.327Z,2.77
2017-04-06T13:06:01.232Z,2.97